Time;durP1;ratioP1;P1;durP2;ratioP2;P2;SDS_P1;SDS_P2;PMS_P1;PMS_P2;Temp;Humidity;BMP_temperature;BMP_pressure;BME280_temperature;BME280_humidity;BME280_pressure;Samples;Min_cycle;Max_cycle;Signal;HPM_P1;HPM_P2
2022/10/31 00:01:56;;;;;;;;;;;23.40;57.40;;;;;;1554670;74;1932;-61
2022/10/31 00:03:58;;;;;;;;;;;23.40;57.40;;;;;;1555345;74;732;-61
2022/10/31 00:06:01;;;;;;;;;;;23.40;57.50;;;;;;1568415;74;1178;-60
2022/10/31 00:08:03;;;;;;;;;;;23.40;57.60;;;;;;1561296;74;777;-61
2022/10/31 00:10:05;;;;;;;;;;;23.50;57.60;;;;;;1564315;74;721;-61
2022/10/31 00:12:07;;;;;;;;;;;23.40;57.40;;;;;;1563651;74;1537;-60
2022/10/31 00:14:09;;;;;;;;;;;23.40;57.50;;;;;;1570047;74;760;-59
2022/10/31 00:16:15;;;;;;;;;;;23.40;57.50;;;;;;1565170;74;1135;-60
2022/10/31 00:18:16;;;;;;;;;;;23.50;57.60;;;;;;1571282;74;762;-59
2022/10/31 00:20:18;;;;;;;;;;;23.40;57.60;;;;;;1557185;74;692;-59
2022/10/31 00:22:20;;;;;;;;;;;23.40;57.60;;;;;;1569252;74;1942;-61
2022/10/31 00:24:22;;;;;;;;;;;23.40;57.60;;;;;;1562305;74;691;-60
2022/10/31 00:26:24;;;;;;;;;;;23.40;57.60;;;;;;1565803;74;1663;-59
2022/10/31 00:28:26;;;;;;;;;;;23.50;57.80;;;;;;1558551;74;824;-61
2022/10/31 00:30:28;;;;;;;;;;;23.50;57.80;;;;;;1565584;74;775;-60
2022/10/31 00:32:30;;;;;;;;;;;23.40;57.80;;;;;;1559175;74;762;-60
2022/10/31 00:34:32;;;;;;;;;;;23.50;57.90;;;;;;1560757;74;1103;-61
2022/10/31 00:36:33;;;;;;;;;;;23.50;57.90;;;;;;1554655;74;1220;-60
2022/10/31 00:38:35;;;;;;;;;;;23.50;57.80;;;;;;1557657;74;698;-58
2022/10/31 00:40:37;;;;;;;;;;;23.50;57.90;;;;;;1566534;74;1543;-60
2022/10/31 00:42:41;;;;;;;;;;;23.40;57.80;;;;;;1568050;74;1919;-60
2022/10/31 00:44:43;;;;;;;;;;;23.40;57.80;;;;;;1574057;75;689;-60
2022/10/31 00:46:45;;;;;;;;;;;23.50;58.00;;;;;;1555975;74;1149;-61
2022/10/31 00:48:47;;;;;;;;;;;23.50;58.00;;;;;;1571504;74;689;-61
2022/10/31 00:50:48;;;;;;;;;;;23.50;57.90;;;;;;1555685;74;747;-60
2022/10/31 00:52:50;;;;;;;;;;;23.50;58.00;;;;;;1557796;74;775;-59
2022/10/31 00:54:52;;;;;;;;;;;23.50;58.10;;;;;;1571100;74;1526;-59
2022/10/31 00:56:54;;;;;;;;;;;23.50;58.10;;;;;;1557563;74;1150;-60
2022/10/31 00:58:56;;;;;;;;;;;23.50;58.10;;;;;;1564563;74;820;-59
2022/10/31 01:00:58;;;;;;;;;;;23.50;58.00;;;;;;1570157;74;767;-61
2022/10/31 01:03:00;;;;;;;;;;;23.50;58.10;;;;;;1562442;74;1938;-60
2022/10/31 01:05:02;;;;;;;;;;;23.50;58.10;;;;;;1571579;74;655;-59
2022/10/31 01:07:03;;;;;;;;;;;23.50;58.10;;;;;;1573855;74;1142;-60
2022/10/31 01:09:05;;;;;;;;;;;23.50;58.10;;;;;;1569594;74;1536;-59
2022/10/31 01:11:08;;;;;;;;;;;23.50;58.00;;;;;;1568751;74;775;-59
2022/10/31 01:13:10;;;;;;;;;;;23.50;58.10;;;;;;1564200;74;774;-61
2022/10/31 01:15:12;;;;;;;;;;;23.50;58.10;;;;;;1560093;74;736;-61
2022/10/31 01:17:14;;;;;;;;;;;23.60;58.10;;;;;;1571634;74;1185;-61
2022/10/31 01:19:16;;;;;;;;;;;23.50;58.00;;;;;;1561289;75;791;-60
2022/10/31 01:21:21;;;;;;;;;;;23.50;58.00;;;;;;1563982;74;708;-60
2022/10/31 01:23:23;;;;;;;;;;;23.50;58.00;;;;;;1570150;74;1930;-61
2022/10/31 01:25:25;;;;;;;;;;;23.50;58.00;;;;;;1558625;74;681;-60
2022/10/31 01:27:27;;;;;;;;;;;23.40;58.00;;;;;;1565607;74;1118;-60
2022/10/31 01:29:29;;;;;;;;;;;23.50;58.10;;;;;;1570296;74;773;-61
2022/10/31 01:31:31;;;;;;;;;;;23.50;58.10;;;;;;1568688;75;779;-59
2022/10/31 01:33:33;;;;;;;;;;;23.50;58.10;;;;;;1553093;74;714;-61
2022/10/31 01:35:35;;;;;;;;;;;23.40;58.00;;;;;;1563545;74;1135;-60
2022/10/31 01:37:37;;;;;;;;;;;23.50;58.20;;;;;;1551572;75;1635;-62
2022/10/31 01:39:39;;;;;;;;;;;23.40;58.10;;;;;;1549613;74;733;-61
2022/10/31 01:41:42;;;;;;;;;;;23.50;58.20;;;;;;1545167;75;1938;-61
2022/10/31 01:43:48;;;;;;;;;;;23.40;58.10;;;;;;1549084;75;698;-61
2022/10/31 01:45:51;;;;;;;;;;;23.40;58.10;;;;;;1550695;75;1143;-61
2022/10/31 01:47:53;;;;;;;;;;;23.50;58.10;;;;;;1540065;75;738;-60
2022/10/31 01:49:56;;;;;;;;;;;23.40;58.10;;;;;;1561828;75;954;-60
2022/10/31 01:51:59;;;;;;;;;;;23.50;58.20;;;;;;1561449;75;1529;-60
2022/10/31 01:54:07;;;;;;;;;;;23.50;58.20;;;;;;1542672;75;782;-61
2022/10/31 01:56:09;;;;;;;;;;;23.30;58.00;;;;;;1547383;75;1133;-60
2022/10/31 01:58:13;;;;;;;;;;;23.50;58.20;;;;;;1549442;75;770;-61
2022/10/31 02:00:15;;;;;;;;;;;23.40;58.20;;;;;;1557557;75;1761;-59
2022/10/31 02:02:20;;;;;;;;;;;23.30;58.20;;;;;;1562963;74;1923;-60
2022/10/31 02:04:21;;;;;;;;;;;23.30;58.20;;;;;;1553025;75;1513;-60
2022/10/31 02:06:34;;;;;;;;;;;23.30;58.20;;;;;;1558587;75;1151;-59
2022/10/31 02:08:36;;;;;;;;;;;23.40;58.20;;;;;;1559272;76;766;-61
2022/10/31 02:10:37;;;;;;;;;;;23.30;58.40;;;;;;1561720;75;641;-59
2022/10/31 02:12:39;;;;;;;;;;;23.30;58.40;;;;;;1562045;75;722;-58
2022/10/31 02:14:41;;;;;;;;;;;23.30;58.40;;;;;;1548592;75;729;-56
2022/10/31 02:16:43;;;;;;;;;;;23.30;58.40;;;;;;1558940;75;1149;-59
2022/10/31 02:18:45;;;;;;;;;;;23.40;58.30;;;;;;1561940;75;1547;-59
2022/10/31 02:21:05;;;;;;;;;;;23.40;58.30;;;;;;1562497;75;688;-61
2022/10/31 02:23:08;;;;;;;;;;;23.40;58.40;;;;;;1559350;75;1931;-60
2022/10/31 02:25:14;;;;;;;;;;;23.30;58.40;;;;;;1553653;75;1828;-58
2022/10/31 02:27:21;;;;;;;;;;;23.40;58.40;;;;;;1549140;75;1103;-59
2022/10/31 02:29:30;;;;;;;;;;;23.30;58.30;;;;;;1553607;75;841;-61
2022/10/31 02:31:34;;;;;;;;;;;23.30;58.40;;;;;;1561476;75;860;-59
2022/10/31 02:33:38;;;;;;;;;;;23.40;58.50;;;;;;1551848;75;1586;-61
2022/10/31 02:35:41;;;;;;;;;;;23.40;58.40;;;;;;1561177;75;1969;-60
2022/10/31 02:37:50;;;;;;;;;;;23.30;58.40;;;;;;1560935;75;1126;-59
2022/10/31 02:40:06;;;;;;;;;;;23.30;58.40;;;;;;1549355;75;1907;-60
2022/10/31 02:42:18;;;;;;;;;;;23.30;58.40;;;;;;1479015;75;1944;-62
2022/10/31 02:44:25;;;;;;;;;;;23.30;58.40;;;;;;1526769;75;1650;-61
2022/10/31 02:46:37;;;;;;;;;;;23.30;58.40;;;;;;1558502;75;1156;-61
2022/10/31 02:48:39;;;;;;;;;;;23.30;58.40;;;;;;1543208;75;1956;-59
2022/10/31 02:50:42;;;;;;;;;;;23.30;58.40;;;;;;1550620;75;732;-61
2022/10/31 02:52:44;;;;;;;;;;;23.30;58.40;;;;;;1548049;75;800;-60
2022/10/31 02:54:46;;;;;;;;;;;23.30;58.50;;;;;;1554448;75;786;-61
2022/10/31 02:56:48;;;;;;;;;;;23.30;58.50;;;;;;1538124;75;1165;-61
2022/10/31 02:58:50;;;;;;;;;;;23.30;58.50;;;;;;1538802;75;751;-60
2022/10/31 03:00:54;;;;;;;;;;;23.30;58.50;;;;;;1569815;75;1572;-61
2022/10/31 03:03:16;;;;;;;;;;;23.30;58.40;;;;;;1547253;75;1943;-61
2022/10/31 03:05:24;;;;;;;;;;;23.30;58.40;;;;;;1553767;75;843;-60
2022/10/31 03:07:37;;;;;;;;;;;23.30;58.40;;;;;;1546518;75;1146;-59
2022/10/31 03:09:43;;;;;;;;;;;23.30;58.50;;;;;;1570859;75;1952;-60
2022/10/31 03:11:47;;;;;;;;;;;23.30;58.60;;;;;;1548606;75;788;-60
2022/10/31 03:14:02;;;;;;;;;;;23.30;58.50;;;;;;1563321;75;734;-60
2022/10/31 03:16:09;;;;;;;;;;;23.30;58.60;;;;;;1553998;75;2137;-60
2022/10/31 03:18:16;;;;;;;;;;;23.30;58.60;;;;;;1551237;75;2554;-59
2022/10/31 03:20:17;;;;;;;;;;;23.30;58.80;;;;;;1542566;76;798;-59
2022/10/31 03:22:23;;;;;;;;;;;23.30;58.90;;;;;;1563798;75;1918;-60
2022/10/31 03:24:26;;;;;;;;;;;23.20;58.90;;;;;;1554462;75;659;-60
2022/10/31 03:26:28;;;;;;;;;;;23.20;58.80;;;;;;1554787;76;1141;-59
2022/10/31 03:28:31;;;;;;;;;;;23.20;58.90;;;;;;1561280;75;754;-61
2022/10/31 03:30:33;;;;;;;;;;;23.30;59.00;;;;;;1564433;75;1506;-59
2022/10/31 03:32:36;;;;;;;;;;;23.30;58.90;;;;;;1541902;75;711;-61
2022/10/31 03:34:38;;;;;;;;;;;23.20;58.70;;;;;;1561862;76;750;-61
2022/10/31 03:36:40;;;;;;;;;;;23.20;58.70;;;;;;1559061;74;1478;-59
2022/10/31 03:38:43;;;;;;;;;;;23.30;58.90;;;;;;1569459;74;720;-59
2022/10/31 03:40:45;;;;;;;;;;;23.30;58.90;;;;;;1559447;74;758;-59
2022/10/31 03:42:48;;;;;;;;;;;23.30;58.80;;;;;;1573640;74;1944;-60
2022/10/31 03:45:01;;;;;;;;;;;23.20;58.80;;;;;;1562054;74;1782;-58
2022/10/31 03:47:03;;;;;;;;;;;23.20;58.90;;;;;;1530680;75;1203;-60
2022/10/31 03:49:05;;;;;;;;;;;23.20;58.90;;;;;;1555106;74;777;-60
2022/10/31 03:51:08;;;;;;;;;;;23.20;59.00;;;;;;1558959;74;772;-60
2022/10/31 03:53:17;;;;;;;;;;;23.20;58.90;;;;;;1579688;74;803;-60
2022/10/31 03:55:37;;;;;;;;;;;23.20;58.90;;;;;;1561210;74;1790;-59
2022/10/31 03:57:43;;;;;;;;;;;23.20;58.90;;;;;;1567803;74;1601;-60
2022/10/31 03:59:47;;;;;;;;;;;23.20;58.90;;;;;;1559118;74;709;-61
2022/10/31 04:01:50;;;;;;;;;;;23.20;59.00;;;;;;1567071;74;803;-60
2022/10/31 04:03:52;;;;;;;;;;;23.20;58.90;;;;;;1553803;74;1938;-60
2022/10/31 04:05:54;;;;;;;;;;;23.20;59.00;;;;;;1571989;74;1135;-60
2022/10/31 04:07:56;;;;;;;;;;;23.20;58.90;;;;;;1559531;74;833;-60
2022/10/31 04:09:58;;;;;;;;;;;23.20;58.90;;;;;;1574429;74;793;-60
2022/10/31 04:12:00;;;;;;;;;;;23.20;58.90;;;;;;1559442;74;1521;-59
2022/10/31 04:14:02;;;;;;;;;;;23.20;58.90;;;;;;1560854;74;749;-60
2022/10/31 04:16:04;;;;;;;;;;;23.20;58.90;;;;;;1554860;74;1089;-59
2022/10/31 04:18:05;;;;;;;;;;;23.20;58.90;;;;;;1570438;74;707;-59
2022/10/31 04:20:08;;;;;;;;;;;23.20;58.90;;;;;;1570350;74;726;-59
2022/10/31 04:22:10;;;;;;;;;;;23.20;58.90;;;;;;1570819;74;769;-59
2022/10/31 04:24:11;;;;;;;;;;;23.20;59.00;;;;;;1564689;74;1949;-60
2022/10/31 04:26:13;;;;;;;;;;;23.20;59.00;;;;;;1566349;74;1464;-60
2022/10/31 04:28:15;;;;;;;;;;;23.20;59.00;;;;;;1567980;74;731;-59
2022/10/31 04:30:17;;;;;;;;;;;23.10;59.20;;;;;;1559165;75;751;-60
2022/10/31 04:32:19;;;;;;;;;;;23.10;59.00;;;;;;1569183;74;768;-59
2022/10/31 04:34:21;;;;;;;;;;;23.20;59.00;;;;;;1556714;74;723;-59
2022/10/31 04:36:23;;;;;;;;;;;23.20;59.00;;;;;;1564156;74;1164;-60
2022/10/31 04:38:24;;;;;;;;;;;23.20;59.20;;;;;;1556933;74;768;-60
2022/10/31 04:40:26;;;;;;;;;;;23.20;59.20;;;;;;1559143;74;1590;-61
2022/10/31 04:42:31;;;;;;;;;;;23.20;59.20;;;;;;1566171;74;785;-59
2022/10/31 04:44:33;;;;;;;;;;;23.20;59.20;;;;;;1558785;74;1947;-61
2022/10/31 04:46:35;;;;;;;;;;;23.10;59.30;;;;;;1559310;74;1289;-59
2022/10/31 04:48:36;;;;;;;;;;;23.10;59.30;;;;;;1567117;74;709;-60
2022/10/31 04:50:38;;;;;;;;;;;23.20;59.30;;;;;;1558423;74;787;-59
2022/10/31 04:52:41;;;;;;;;;;;23.20;59.30;;;;;;1571875;74;717;-59
2022/10/31 04:54:43;;;;;;;;;;;23.10;59.30;;;;;;1557837;74;1561;-60
2022/10/31 04:56:44;;;;;;;;;;;23.10;59.40;;;;;;1559457;74;1153;-60
2022/10/31 04:58:46;;;;;;;;;;;23.20;59.50;;;;;;1563042;74;777;-59
2022/10/31 05:00:50;;;;;;;;;;;23.20;59.40;;;;;;1556879;74;782;-59
2022/10/31 05:02:52;;;;;;;;;;;23.20;59.30;;;;;;1556358;74;1975;-59
2022/10/31 05:04:54;;;;;;;;;;;23.20;58.90;;;;;;1558271;74;819;-60
2022/10/31 05:06:56;;;;;;;;;;;23.20;58.70;;;;;;1570256;74;1139;-61
2022/10/31 05:08:58;;;;;;;;;;;23.20;58.60;;;;;;1555919;74;1585;-59
2022/10/31 05:11:01;;;;;;;;;;;23.20;58.40;;;;;;1560424;74;874;-60
2022/10/31 05:13:03;;;;;;;;;;;23.10;58.60;;;;;;1564944;74;724;-60
2022/10/31 05:15:05;;;;;;;;;;;23.20;58.50;;;;;;1554915;74;820;-59
2022/10/31 05:17:07;;;;;;;;;;;23.10;58.60;;;;;;1564640;74;1156;-59
2022/10/31 05:19:09;;;;;;;;;;;23.10;58.60;;;;;;1562239;74;899;-60
2022/10/31 05:21:11;;;;;;;;;;;23.20;58.60;;;;;;1570169;74;1526;-60
2022/10/31 05:23:13;;;;;;;;;;;23.10;58.70;;;;;;1559987;74;1931;-59
2022/10/31 05:25:15;;;;;;;;;;;23.10;58.70;;;;;;1565758;74;742;-59
2022/10/31 05:27:17;;;;;;;;;;;23.10;58.80;;;;;;1565151;74;1208;-59
2022/10/31 05:29:19;;;;;;;;;;;23.10;59.00;;;;;;1566425;74;778;-59
2022/10/31 05:31:20;;;;;;;;;;;23.20;58.70;;;;;;1558773;74;744;-60
2022/10/31 05:33:22;;;;;;;;;;;23.30;58.20;;;;;;1566867;74;729;-60
2022/10/31 05:35:25;;;;;;;;;;;23.40;58.00;;;;;;1565979;74;1556;-59
2022/10/31 05:37:27;;;;;;;;;;;23.50;57.90;;;;;;1560370;74;1134;-59
2022/10/31 05:39:29;;;;;;;;;;;23.50;57.90;;;;;;1557537;74;695;-59
2022/10/31 05:41:31;;;;;;;;;;;23.50;57.70;;;;;;1565609;74;796;-59
2022/10/31 05:43:33;;;;;;;;;;;23.60;57.60;;;;;;1572668;74;1930;-59
2022/10/31 05:45:35;;;;;;;;;;;23.50;57.50;;;;;;1575318;74;788;-61
2022/10/31 05:47:36;;;;;;;;;;;23.60;57.40;;;;;;1572515;74;1174;-59
2022/10/31 05:49:38;;;;;;;;;;;23.60;57.20;;;;;;1571016;74;1508;-60
2022/10/31 05:51:40;;;;;;;;;;;23.50;57.10;;;;;;1562880;74;814;-59
2022/10/31 05:53:42;;;;;;;;;;;23.60;57.20;;;;;;1578091;74;763;-59
2022/10/31 05:55:44;;;;;;;;;;;23.60;57.20;;;;;;1580146;74;726;-61
2022/10/31 05:57:46;;;;;;;;;;;23.60;57.10;;;;;;1575356;74;834;-60
2022/10/31 05:59:48;;;;;;;;;;;23.60;57.10;;;;;;1568584;74;672;-61
2022/10/31 06:01:50;;;;;;;;;;;23.60;56.80;;;;;;1577524;74;799;-60
2022/10/31 06:03:51;;;;;;;;;;;23.60;56.80;;;;;;1569060;74;1936;-59
2022/10/31 06:05:53;;;;;;;;;;;23.70;57.00;;;;;;1574097;74;1100;-59
2022/10/31 06:07:55;;;;;;;;;;;23.60;57.00;;;;;;1569288;74;760;-59
2022/10/31 06:09:57;;;;;;;;;;;23.60;57.00;;;;;;1565983;74;815;-60
2022/10/31 06:11:59;;;;;;;;;;;23.50;56.90;;;;;;1571059;74;735;-60
2022/10/31 06:14:01;;;;;;;;;;;23.70;56.50;;;;;;1575643;74;787;-60
2022/10/31 06:16:03;;;;;;;;;;;23.60;56.60;;;;;;1555556;74;1144;-60
2022/10/31 06:18:05;;;;;;;;;;;23.60;56.40;;;;;;1564266;74;1523;-59
2022/10/31 06:20:08;;;;;;;;;;;23.70;56.30;;;;;;1552893;74;767;-61
2022/10/31 06:22:11;;;;;;;;;;;23.70;56.10;;;;;;1562763;74;969;-59
2022/10/31 06:24:14;;;;;;;;;;;23.70;55.90;;;;;;1565387;74;1926;-59
2022/10/31 06:26:16;;;;;;;;;;;23.60;55.70;;;;;;1555833;74;1172;-60
2022/10/31 06:28:18;;;;;;;;;;;23.50;56.00;;;;;;1566100;74;773;-59
2022/10/31 06:30:20;;;;;;;;;;;23.60;55.60;;;;;;1567097;74;664;-59
2022/10/31 06:32:22;;;;;;;;;;;23.60;55.70;;;;;;1570464;74;1582;-59
2022/10/31 06:34:24;;;;;;;;;;;23.60;55.60;;;;;;1569872;74;735;-59
2022/10/31 06:36:26;;;;;;;;;;;23.50;55.60;;;;;;1562443;74;1139;-60
2022/10/31 06:38:28;;;;;;;;;;;23.40;55.70;;;;;;1566675;74;1088;-60
2022/10/31 06:40:30;;;;;;;;;;;23.30;55.80;;;;;;1568560;74;682;-61
2022/10/31 06:42:32;;;;;;;;;;;23.30;55.80;;;;;;1570608;74;740;-60
2022/10/31 06:44:34;;;;;;;;;;;23.30;55.80;;;;;;1560694;74;1935;-60
2022/10/31 06:46:36;;;;;;;;;;;23.30;56.00;;;;;;1568427;74;1559;-60
2022/10/31 06:48:37;;;;;;;;;;;23.10;55.90;;;;;;1566481;74;708;-60
2022/10/31 06:50:39;;;;;;;;;;;23.10;56.00;;;;;;1569504;74;773;-60
2022/10/31 06:52:41;;;;;;;;;;;23.10;56.00;;;;;;1581612;74;754;-59
2022/10/31 06:54:43;;;;;;;;;;;23.10;56.00;;;;;;1567112;74;810;-60
2022/10/31 06:56:48;;;;;;;;;;;23.10;56.00;;;;;;1549811;74;1136;-60
2022/10/31 06:58:49;;;;;;;;;;;23.10;56.00;;;;;;1570053;74;880;-58
2022/10/31 07:00:51;;;;;;;;;;;23.10;56.10;;;;;;1564570;74;1588;-56
2022/10/31 07:02:55;;;;;;;;;;;23.00;55.90;;;;;;1554637;74;798;-61
2022/10/31 07:04:57;;;;;;;;;;;23.00;55.90;;;;;;1555414;74;1949;-57
2022/10/31 07:06:58;;;;;;;;;;;23.00;55.90;;;;;;1560990;74;1158;-57
2022/10/31 07:09:00;;;;;;;;;;;23.00;55.90;;;;;;1564796;74;679;-59
2022/10/31 07:11:02;;;;;;;;;;;23.00;55.90;;;;;;1555791;74;780;-58
2022/10/31 07:13:05;;;;;;;;;;;23.00;55.80;;;;;;1554215;74;720;-59
2022/10/31 07:15:07;;;;;;;;;;;23.00;55.70;;;;;;1547546;74;1518;-57
2022/10/31 07:17:09;;;;;;;;;;;22.90;55.90;;;;;;1558834;74;1160;-57
2022/10/31 07:19:11;;;;;;;;;;;23.00;55.90;;;;;;1552503;74;790;-57
2022/10/31 07:21:13;;;;;;;;;;;23.00;55.80;;;;;;1558651;74;792;-59
2022/10/31 07:23:15;;;;;;;;;;;23.00;55.70;;;;;;1561693;74;723;-59
2022/10/31 07:25:16;;;;;;;;;;;23.00;55.70;;;;;;1542311;74;1940;-61
2022/10/31 07:27:18;;;;;;;;;;;22.90;55.70;;;;;;1557644;74;1128;-59
2022/10/31 07:29:20;;;;;;;;;;;22.90;55.80;;;;;;1568974;74;1690;-57
2022/10/31 07:31:22;;;;;;;;;;;23.00;55.80;;;;;;1562235;74;673;-57
2022/10/31 07:33:25;;;;;;;;;;;22.90;55.70;;;;;;1565440;74;809;-57
2022/10/31 07:35:28;;;;;;;;;;;22.90;55.90;;;;;;1558435;74;745;-60
2022/10/31 07:37:29;;;;;;;;;;;23.10;55.70;;;;;;1561888;74;1119;-58
2022/10/31 07:39:32;;;;;;;;;;;23.00;55.20;;;;;;1545002;75;1075;-58
2022/10/31 07:41:33;;;;;;;;;;;23.00;55.20;;;;;;1555883;76;755;-56
2022/10/31 07:43:35;;;;;;;;;;;23.00;55.30;;;;;;1555268;76;1556;-58
2022/10/31 07:45:37;;;;;;;;;;;23.00;55.50;;;;;;1545242;76;1931;-58
2022/10/31 07:47:40;;;;;;;;;;;23.00;55.50;;;;;;1556049;76;1133;-56
2022/10/31 07:49:42;;;;;;;;;;;23.00;55.40;;;;;;1546437;76;719;-56
2022/10/31 07:51:43;;;;;;;;;;;23.00;55.10;;;;;;1543385;76;767;-57
2022/10/31 07:53:45;;;;;;;;;;;22.90;55.10;;;;;;1550230;76;743;-60
2022/10/31 07:55:47;;;;;;;;;;;22.90;55.00;;;;;;1550803;76;1146;-58
2022/10/31 07:57:53;;;;;;;;;;;22.90;55.10;;;;;;1544166;76;1546;-60
2022/10/31 07:59:55;;;;;;;;;;;22.90;55.20;;;;;;1546514;75;1822;-59
2022/10/31 08:01:57;;;;;;;;;;;23.00;55.10;;;;;;1553004;76;705;-59
2022/10/31 08:03:59;;;;;;;;;;;23.00;55.20;;;;;;1549136;76;1932;-59
2022/10/31 08:06:01;;;;;;;;;;;23.00;55.00;;;;;;1550477;76;1149;-57
2022/10/31 08:08:03;;;;;;;;;;;23.10;55.20;;;;;;1548812;76;742;-56
2022/10/31 08:10:05;;;;;;;;;;;23.20;55.00;;;;;;1545498;76;1552;-59
2022/10/31 08:12:07;;;;;;;;;;;23.30;54.90;;;;;;1546495;76;720;-57
2022/10/31 08:14:09;;;;;;;;;;;23.40;54.60;;;;;;1540400;76;731;-57
2022/10/31 08:16:11;;;;;;;;;;;23.40;54.40;;;;;;1543760;76;1101;-59
2022/10/31 08:18:13;;;;;;;;;;;23.50;54.40;;;;;;1544383;76;738;-60
2022/10/31 08:20:15;;;;;;;;;;;23.50;54.20;;;;;;1548095;76;751;-58
2022/10/31 08:22:17;;;;;;;;;;;23.60;54.00;;;;;;1541325;76;758;-60
2022/10/31 08:24:19;;;;;;;;;;;23.70;53.90;;;;;;1537413;76;1942;-60
2022/10/31 08:26:21;;;;;;;;;;;23.70;53.90;;;;;;1549357;76;1190;-59
2022/10/31 08:28:23;;;;;;;;;;;23.70;53.70;;;;;;1537070;76;752;-60
2022/10/31 08:30:26;;;;;;;;;;;23.70;53.70;;;;;;1542536;76;810;-58
2022/10/31 08:32:28;;;;;;;;;;;23.80;53.60;;;;;;1538067;76;1805;-60
2022/10/31 08:34:30;;;;;;;;;;;23.80;53.60;;;;;;1545905;76;771;-59
2022/10/31 08:36:32;;;;;;;;;;;23.80;53.50;;;;;;1544701;76;1103;-58
2022/10/31 08:38:34;;;;;;;;;;;23.80;53.40;;;;;;1543159;76;1557;-60
2022/10/31 08:40:36;;;;;;;;;;;23.80;53.40;;;;;;1544549;75;1082;-60
2022/10/31 08:42:38;;;;;;;;;;;23.80;53.40;;;;;;1549328;75;846;-60
2022/10/31 08:44:40;;;;;;;;;;;23.90;53.40;;;;;;1560237;75;1956;-60
2022/10/31 08:46:42;;;;;;;;;;;23.90;53.40;;;;;;1559346;75;1207;-60
2022/10/31 08:48:44;;;;;;;;;;;23.90;53.30;;;;;;1545030;75;788;-59
2022/10/31 08:50:46;;;;;;;;;;;23.90;53.10;;;;;;1551951;75;749;-60
2022/10/31 08:52:48;;;;;;;;;;;23.90;53.10;;;;;;1560368;75;1522;-59
2022/10/31 08:54:49;;;;;;;;;;;24.00;53.10;;;;;;1553114;75;799;-60
2022/10/31 08:56:55;;;;;;;;;;;24.00;53.20;;;;;;1568406;75;1150;-61
2022/10/31 08:58:57;;;;;;;;;;;23.90;53.10;;;;;;1556685;75;747;-61
2022/10/31 09:00:59;;;;;;;;;;;23.90;53.10;;;;;;1573513;75;781;-61
2022/10/31 09:03:03;;;;;;;;;;;23.90;53.00;;;;;;1567140;75;776;-59
2022/10/31 09:05:05;;;;;;;;;;;24.00;52.90;;;;;;1563904;75;2079;-60
2022/10/31 09:07:07;;;;;;;;;;;24.00;52.80;;;;;;1566360;75;1588;-59
2022/10/31 09:09:09;;;;;;;;;;;24.00;52.70;;;;;;1547660;75;704;-59
2022/10/31 09:11:10;;;;;;;;;;;24.10;52.80;;;;;;1552879;75;809;-60
2022/10/31 09:13:13;;;;;;;;;;;24.00;52.60;;;;;;1560361;75;704;-58
2022/10/31 09:15:15;;;;;;;;;;;24.00;52.70;;;;;;1552222;75;799;-59
2022/10/31 09:17:17;;;;;;;;;;;24.00;52.70;;;;;;1557034;75;1122;-60
2022/10/31 09:19:19;;;;;;;;;;;24.10;52.80;;;;;;1561607;75;783;-58
2022/10/31 09:21:20;;;;;;;;;;;24.00;52.60;;;;;;1568153;75;1603;-57
2022/10/31 09:23:23;;;;;;;;;;;24.00;52.60;;;;;;1547573;75;812;-58
2022/10/31 09:25:25;;;;;;;;;;;24.00;52.60;;;;;;1566461;75;1927;-61
2022/10/31 09:27:27;;;;;;;;;;;24.00;52.50;;;;;;1554362;75;1149;-60
2022/10/31 09:29:29;;;;;;;;;;;24.00;52.60;;;;;;1567334;75;904;-60
2022/10/31 09:31:31;;;;;;;;;;;24.00;52.60;;;;;;1558110;75;734;-60
2022/10/31 09:33:33;;;;;;;;;;;24.00;52.50;;;;;;1563340;75;936;-60
2022/10/31 09:35:35;;;;;;;;;;;24.10;52.60;;;;;;1548998;75;1539;-61
2022/10/31 09:37:37;;;;;;;;;;;24.00;52.30;;;;;;1558570;75;1133;-57
2022/10/31 09:39:38;;;;;;;;;;;24.10;52.30;;;;;;1566879;74;1122;-60
2022/10/31 09:41:51;;;;;;;;;;;24.10;52.30;;;;;;1565360;75;715;-60
2022/10/31 09:43:54;;;;;;;;;;;24.10;52.30;;;;;;1565677;75;1827;-60
2022/10/31 09:45:59;;;;;;;;;;;24.00;52.10;;;;;;1561348;75;1942;-59
2022/10/31 09:48:05;;;;;;;;;;;24.10;52.20;;;;;;1552865;75;1194;-59
2022/10/31 09:50:09;;;;;;;;;;;24.20;52.10;;;;;;1561491;75;1706;-60
2022/10/31 09:52:12;;;;;;;;;;;24.20;52.10;;;;;;1566289;75;1927;-61
2022/10/31 09:54:28;;;;;;;;;;;24.10;52.10;;;;;;1564605;75;745;-59
2022/10/31 09:56:30;;;;;;;;;;;24.10;52.10;;;;;;1569726;75;1179;-60
2022/10/31 09:58:32;;;;;;;;;;;24.10;52.10;;;;;;1529981;76;749;-62
2022/10/31 10:00:34;;;;;;;;;;;24.20;52.10;;;;;;1488154;78;688;-58
2022/10/31 10:02:38;;;;;;;;;;;24.10;52.10;;;;;;1498143;78;1557;-60
2022/10/31 10:04:41;;;;;;;;;;;24.10;52.10;;;;;;1549966;75;1911;-61
2022/10/31 10:06:44;;;;;;;;;;;24.10;52.10;;;;;;1554140;75;2123;-60
2022/10/31 10:08:46;;;;;;;;;;;24.10;52.10;;;;;;1550107;75;755;-59
2022/10/31 10:10:56;;;;;;;;;;;24.10;52.10;;;;;;1553814;75;775;-58
2022/10/31 10:12:59;;;;;;;;;;;24.10;52.10;;;;;;1551241;75;822;-60
2022/10/31 10:15:15;;;;;;;;;;;24.10;52.10;;;;;;1549582;75;1649;-59
2022/10/31 10:17:21;;;;;;;;;;;24.10;52.10;;;;;;1546421;75;1496;-58
2022/10/31 10:19:31;;;;;;;;;;;24.10;52.10;;;;;;1559243;75;1950;-60
2022/10/31 10:21:37;;;;;;;;;;;24.10;52.30;;;;;;1555398;75;736;-61
2022/10/31 10:23:50;;;;;;;;;;;24.10;52.30;;;;;;1532961;75;1045;-59
2022/10/31 10:25:54;;;;;;;;;;;24.00;52.20;;;;;;1551724;75;2019;-59
2022/10/31 10:28:14;;;;;;;;;;;24.00;52.40;;;;;;1549950;75;796;-60
2022/10/31 10:30:22;;;;;;;;;;;24.00;52.50;;;;;;1557535;75;709;-60
2022/10/31 10:32:25;;;;;;;;;;;24.10;52.60;;;;;;1557032;75;1510;-60
2022/10/31 10:34:28;;;;;;;;;;;24.00;52.40;;;;;;1549356;75;718;-60
2022/10/31 10:36:34;;;;;;;;;;;24.00;52.60;;;;;;1553429;75;1091;-58
2022/10/31 10:38:40;;;;;;;;;;;24.00;52.60;;;;;;1536582;75;1584;-60
2022/10/31 10:40:42;;;;;;;;;;;24.00;52.50;;;;;;1558209;75;1133;-59
2022/10/31 10:47:40;;;;;;;;;;;24.00;52.60;;;;;;1562304;74;1220;-58
2022/10/31 10:49:51;;;;;;;;;;;24.00;52.60;;;;;;1559970;74;1109;-60
2022/10/31 10:52:13;;;;;;;;;;;24.10;52.80;;;;;;1570722;74;779;-58
2022/10/31 10:54:19;;;;;;;;;;;24.10;52.80;;;;;;1570928;74;813;-60
2022/10/31 10:56:23;;;;;;;;;;;24.10;52.90;;;;;;1568100;74;1674;-58
2022/10/31 10:58:25;;;;;;;;;;;24.00;52.90;;;;;;1571795;74;2468;-61
2022/10/31 11:00:28;;;;;;;;;;;24.10;52.90;;;;;;1568918;74;1211;-59
2022/10/31 11:02:32;;;;;;;;;;;24.00;52.70;;;;;;1566715;74;883;-60
2022/10/31 11:04:35;;;;;;;;;;;24.10;52.90;;;;;;1566017;74;686;-58
2022/10/31 11:06:37;;;;;;;;;;;24.00;52.80;;;;;;1567498;74;1937;-61
2022/10/31 11:08:39;;;;;;;;;;;24.00;52.80;;;;;;1564696;74;702;-59
2022/10/31 11:10:41;;;;;;;;;;;24.10;53.00;;;;;;1572985;74;652;-61
2022/10/31 11:12:47;;;;;;;;;;;24.10;52.90;;;;;;1564487;74;750;-60
2022/10/31 11:14:55;;;;;;;;;;;24.10;52.90;;;;;;1551003;74;1898;-60
2022/10/31 11:17:10;;;;;;;;;;;24.10;53.00;;;;;;1551312;74;1142;-60
2022/10/31 11:19:16;;;;;;;;;;;24.10;52.90;;;;;;1560704;74;782;-59
2022/10/31 11:21:23;;;;;;;;;;;24.00;52.90;;;;;;1569354;74;749;-60
2022/10/31 11:23:25;;;;;;;;;;;24.00;53.10;;;;;;1567267;74;948;-60
2022/10/31 11:25:27;;;;;;;;;;;24.00;53.20;;;;;;1558561;74;1940;-61
2022/10/31 11:27:29;;;;;;;;;;;24.10;53.10;;;;;;1564138;74;1355;-60
2022/10/31 11:29:31;;;;;;;;;;;24.00;53.10;;;;;;1570119;74;796;-60
2022/10/31 11:31:33;;;;;;;;;;;24.00;53.10;;;;;;1567369;74;722;-62
2022/10/31 11:33:39;;;;;;;;;;;24.10;53.20;;;;;;1533241;76;775;-60
2022/10/31 11:35:41;;;;;;;;;;;24.20;53.10;;;;;;1575195;74;736;-61
2022/10/31 11:37:43;;;;;;;;;;;24.00;52.80;;;;;;1568604;74;1152;-61
2022/10/31 11:39:48;;;;;;;;;;;24.10;52.90;;;;;;1563442;74;693;-60
2022/10/31 11:41:50;;;;;;;;;;;24.20;52.90;;;;;;1557747;74;1675;-60
2022/10/31 11:43:52;;;;;;;;;;;24.10;52.90;;;;;;1562885;75;740;-60
2022/10/31 11:45:54;;;;;;;;;;;24.10;52.90;;;;;;1544719;75;1946;-61
2022/10/31 11:47:56;;;;;;;;;;;24.10;52.90;;;;;;1549808;75;726;-60
2022/10/31 11:49:58;;;;;;;;;;;24.10;53.00;;;;;;1547791;75;755;-60
2022/10/31 11:52:02;;;;;;;;;;;24.10;53.00;;;;;;1531068;76;819;-59
2022/10/31 11:54:04;;;;;;;;;;;24.00;52.70;;;;;;1548473;75;714;-59
2022/10/31 11:56:16;;;;;;;;;;;24.00;52.80;;;;;;1557847;75;1609;-60
2022/10/31 11:58:21;;;;;;;;;;;24.10;52.90;;;;;;1556290;76;775;-61
2022/10/31 12:00:33;;;;;;;;;;;24.00;52.80;;;;;;1562272;75;745;-61
2022/10/31 12:02:35;;;;;;;;;;;24.00;53.00;;;;;;1561448;74;768;-60
2022/10/31 12:04:42;;;;;;;;;;;24.00;53.10;;;;;;1564357;75;789;-60
2022/10/31 12:06:45;;;;;;;;;;;24.00;53.10;;;;;;1550351;75;1963;-61
2022/10/31 12:08:47;;;;;;;;;;;24.00;53.10;;;;;;1547766;75;753;-60
2022/10/31 12:10:51;;;;;;;;;;;23.90;53.30;;;;;;1559456;75;1524;-61
2022/10/31 12:12:54;;;;;;;;;;;23.90;53.50;;;;;;1557791;75;792;-61
2022/10/31 12:15:04;;;;;;;;;;;24.00;53.40;;;;;;1544155;75;745;-60
2022/10/31 12:17:11;;;;;;;;;;;24.00;53.50;;;;;;1556922;75;1148;-59
2022/10/31 12:19:22;;;;;;;;;;;23.90;53.70;;;;;;1548131;75;722;-61